sensor_id;sensor_type;location;lat;lon;timestamp;temperature;humidity
10431;DHT22;5262;59.958;17.726;2023-05-16T00:00:34;8.60;99.90
10431;DHT22;5262;59.958;17.726;2023-05-16T00:03:03;8.60;99.90
10431;DHT22;5262;59.958;17.726;2023-05-16T00:05:29;8.60;99.90
10431;DHT22;5262;59.958;17.726;2023-05-16T00:07:55;8.50;99.90
10431;DHT22;5262;59.958;17.726;2023-05-16T00:10:21;8.50;99.90
10431;DHT22;5262;59.958;17.726;2023-05-16T00:12:46;8.50;99.90
10431;DHT22;5262;59.958;17.726;2023-05-16T00:15:17;8.60;99.90
10431;DHT22;5262;59.958;17.726;2023-05-16T00:17:42;8.60;99.90
10431;DHT22;5262;59.958;17.726;2023-05-16T00:20:11;8.50;99.90
10431;DHT22;5262;59.958;17.726;2023-05-16T00:22:38;8.50;99.90
10431;DHT22;5262;59.958;17.726;2023-05-16T00:25:05;8.40;99.90
10431;DHT22;5262;59.958;17.726;2023-05-16T00:27:33;8.40;99.90
10431;DHT22;5262;59.958;17.726;2023-05-16T00:29:59;8.50;99.90
10431;DHT22;5262;59.958;17.726;2023-05-16T00:32:26;8.40;99.90
10431;DHT22;5262;59.958;17.726;2023-05-16T00:34:51;8.40;99.90
10431;DHT22;5262;59.958;17.726;2023-05-16T00:37:17;8.40;99.90
10431;DHT22;5262;59.958;17.726;2023-05-16T00:39:43;8.40;99.90
10431;DHT22;5262;59.958;17.726;2023-05-16T00:42:08;8.30;99.90
10431;DHT22;5262;59.958;17.726;2023-05-16T00:44:34;8.20;99.90
10431;DHT22;5262;59.958;17.726;2023-05-16T00:46:59;8.10;99.90
10431;DHT22;5262;59.958;17.726;2023-05-16T00:49:27;8.10;99.90
10431;DHT22;5262;59.958;17.726;2023-05-16T00:51:53;8.00;99.90
10431;DHT22;5262;59.958;17.726;2023-05-16T00:54:21;7.90;99.90
10431;DHT22;5262;59.958;17.726;2023-05-16T00:56:47;7.90;99.90
10431;DHT22;5262;59.958;17.726;2023-05-16T00:59:13;7.90;99.90
10431;DHT22;5262;59.958;17.726;2023-05-16T01:01:40;7.80;99.90
10431;DHT22;5262;59.958;17.726;2023-05-16T01:04:06;7.80;99.90
10431;DHT22;5262;59.958;17.726;2023-05-16T01:06:33;7.70;99.90
10431;DHT22;5262;59.958;17.726;2023-05-16T01:08:59;7.70;99.90
10431;DHT22;5262;59.958;17.726;2023-05-16T01:14:34;7.50;99.90
10431;DHT22;5262;59.958;17.726;2023-05-16T01:25:39;7.30;99.90
10431;DHT22;5262;59.958;17.726;2023-05-16T01:28:12;7.30;99.90
10431;DHT22;5262;59.958;17.726;2023-05-16T01:30:39;7.20;99.90
10431;DHT22;5262;59.958;17.726;2023-05-16T01:33:09;7.20;99.90
10431;DHT22;5262;59.958;17.726;2023-05-16T01:35:59;7.10;99.90
10431;DHT22;5262;59.958;17.726;2023-05-16T01:39:20;7.10;99.90
10431;DHT22;5262;59.958;17.726;2023-05-16T01:44:19;7.00;99.90
10431;DHT22;5262;59.958;17.726;2023-05-16T01:46:49;7.00;99.90
10431;DHT22;5262;59.958;17.726;2023-05-16T01:49:33;7.00;99.90
10431;DHT22;5262;59.958;17.726;2023-05-16T01:52:14;6.90;99.90
10431;DHT22;5262;59.958;17.726;2023-05-16T01:54:44;6.90;99.90
10431;DHT22;5262;59.958;17.726;2023-05-16T01:57:12;6.80;99.90
10431;DHT22;5262;59.958;17.726;2023-05-16T01:59:38;6.80;99.90
10431;DHT22;5262;59.958;17.726;2023-05-16T02:02:04;6.70;99.90
10431;DHT22;5262;59.958;17.726;2023-05-16T02:04:30;6.70;99.90
10431;DHT22;5262;59.958;17.726;2023-05-16T02:06:56;6.70;99.90
10431;DHT22;5262;59.958;17.726;2023-05-16T02:09:21;6.80;99.90
10431;DHT22;5262;59.958;17.726;2023-05-16T02:11:47;6.80;99.90
10431;DHT22;5262;59.958;17.726;2023-05-16T02:14:13;6.80;99.90
10431;DHT22;5262;59.958;17.726;2023-05-16T02:16:39;6.80;99.90
10431;DHT22;5262;59.958;17.726;2023-05-16T02:19:04;6.80;99.90
10431;DHT22;5262;59.958;17.726;2023-05-16T02:21:30;6.80;99.90
10431;DHT22;5262;59.958;17.726;2023-05-16T02:23:56;6.80;99.90
10431;DHT22;5262;59.958;17.726;2023-05-16T02:26:21;6.90;99.90
10431;DHT22;5262;59.958;17.726;2023-05-16T02:28:47;6.90;99.90
10431;DHT22;5262;59.958;17.726;2023-05-16T02:31:29;6.90;99.90
10431;DHT22;5262;59.958;17.726;2023-05-16T02:33:56;7.00;99.90
10431;DHT22;5262;59.958;17.726;2023-05-16T02:36:23;6.90;99.90
10431;DHT22;5262;59.958;17.726;2023-05-16T02:38:48;6.90;99.90
10431;DHT22;5262;59.958;17.726;2023-05-16T02:41:14;7.00;99.90
10431;DHT22;5262;59.958;17.726;2023-05-16T02:43:40;7.00;99.90
10431;DHT22;5262;59.958;17.726;2023-05-16T02:46:28;7.00;99.90
10431;DHT22;5262;59.958;17.726;2023-05-16T02:48:57;7.00;99.90
10431;DHT22;5262;59.958;17.726;2023-05-16T02:51:25;7.00;99.90
10431;DHT22;5262;59.958;17.726;2023-05-16T02:53:51;7.00;99.90
10431;DHT22;5262;59.958;17.726;2023-05-16T02:56:18;7.10;99.90
10431;DHT22;5262;59.958;17.726;2023-05-16T02:58:47;7.20;99.90
10431;DHT22;5262;59.958;17.726;2023-05-16T03:01:13;7.20;99.90
10431;DHT22;5262;59.958;17.726;2023-05-16T03:03:39;7.30;99.90
10431;DHT22;5262;59.958;17.726;2023-05-16T03:06:05;7.30;99.90
10431;DHT22;5262;59.958;17.726;2023-05-16T03:08:31;7.40;99.90
10431;DHT22;5262;59.958;17.726;2023-05-16T03:10:57;7.40;99.90
10431;DHT22;5262;59.958;17.726;2023-05-16T03:13:23;7.40;99.90
10431;DHT22;5262;59.958;17.726;2023-05-16T03:15:48;7.50;99.90
10431;DHT22;5262;59.958;17.726;2023-05-16T03:18:14;7.50;99.90
10431;DHT22;5262;59.958;17.726;2023-05-16T03:20:40;7.60;99.90
10431;DHT22;5262;59.958;17.726;2023-05-16T03:23:05;7.70;99.90
10431;DHT22;5262;59.958;17.726;2023-05-16T03:25:35;7.70;99.90
10431;DHT22;5262;59.958;17.726;2023-05-16T03:28:05;7.80;99.90
10431;DHT22;5262;59.958;17.726;2023-05-16T03:30:32;7.90;99.90
10431;DHT22;5262;59.958;17.726;2023-05-16T03:32:58;7.90;99.90
10431;DHT22;5262;59.958;17.726;2023-05-16T03:35:24;8.00;99.90
10431;DHT22;5262;59.958;17.726;2023-05-16T03:37:49;8.10;99.90
10431;DHT22;5262;59.958;17.726;2023-05-16T03:40:15;8.20;99.90
10431;DHT22;5262;59.958;17.726;2023-05-16T03:42:41;8.30;99.90
10431;DHT22;5262;59.958;17.726;2023-05-16T03:45:07;8.40;99.90
10431;DHT22;5262;59.958;17.726;2023-05-16T03:47:33;8.40;99.90
10431;DHT22;5262;59.958;17.726;2023-05-16T03:49:58;8.50;99.90
10431;DHT22;5262;59.958;17.726;2023-05-16T03:52:24;8.50;99.90
10431;DHT22;5262;59.958;17.726;2023-05-16T03:54:50;8.60;99.90
10431;DHT22;5262;59.958;17.726;2023-05-16T03:57:16;8.70;99.90
10431;DHT22;5262;59.958;17.726;2023-05-16T03:59:41;8.70;99.90
10431;DHT22;5262;59.958;17.726;2023-05-16T04:02:07;8.80;99.90
10431;DHT22;5262;59.958;17.726;2023-05-16T04:04:33;8.90;99.90
10431;DHT22;5262;59.958;17.726;2023-05-16T04:06:59;9.00;99.90
10431;DHT22;5262;59.958;17.726;2023-05-16T04:09:25;9.10;99.90
10431;DHT22;5262;59.958;17.726;2023-05-16T04:11:50;9.20;99.90
10431;DHT22;5262;59.958;17.726;2023-05-16T04:14:16;9.30;99.90
10431;DHT22;5262;59.958;17.726;2023-05-16T04:16:42;9.40;99.90
10431;DHT22;5262;59.958;17.726;2023-05-16T04:19:07;9.50;99.90
10431;DHT22;5262;59.958;17.726;2023-05-16T04:21:33;9.60;99.90
10431;DHT22;5262;59.958;17.726;2023-05-16T04:24:00;9.70;99.90
10431;DHT22;5262;59.958;17.726;2023-05-16T04:26:26;9.80;99.90
10431;DHT22;5262;59.958;17.726;2023-05-16T04:28:52;9.80;99.90
10431;DHT22;5262;59.958;17.726;2023-05-16T04:31:18;9.90;99.90
10431;DHT22;5262;59.958;17.726;2023-05-16T04:33:43;10.00;99.90
10431;DHT22;5262;59.958;17.726;2023-05-16T04:36:09;10.10;99.90
10431;DHT22;5262;59.958;17.726;2023-05-16T04:38:34;10.20;99.90
10431;DHT22;5262;59.958;17.726;2023-05-16T04:41:00;10.30;99.90
10431;DHT22;5262;59.958;17.726;2023-05-16T04:43:28;10.40;99.90
10431;DHT22;5262;59.958;17.726;2023-05-16T04:45:53;10.50;99.90
10431;DHT22;5262;59.958;17.726;2023-05-16T04:48:20;10.60;99.90
10431;DHT22;5262;59.958;17.726;2023-05-16T04:50:45;10.70;99.90
10431;DHT22;5262;59.958;17.726;2023-05-16T04:53:11;10.80;99.90
10431;DHT22;5262;59.958;17.726;2023-05-16T04:55:39;10.90;99.90
10431;DHT22;5262;59.958;17.726;2023-05-16T04:58:05;11.00;99.90
10431;DHT22;5262;59.958;17.726;2023-05-16T05:00:31;11.20;99.90
10431;DHT22;5262;59.958;17.726;2023-05-16T05:02:57;11.20;99.90
10431;DHT22;5262;59.958;17.726;2023-05-16T05:05:22;11.30;99.90
10431;DHT22;5262;59.958;17.726;2023-05-16T05:07:48;11.30;99.90
10431;DHT22;5262;59.958;17.726;2023-05-16T05:10:14;11.50;99.90
10431;DHT22;5262;59.958;17.726;2023-05-16T05:12:39;11.50;99.90
10431;DHT22;5262;59.958;17.726;2023-05-16T05:15:05;11.60;99.90
10431;DHT22;5262;59.958;17.726;2023-05-16T05:17:31;11.70;99.90
10431;DHT22;5262;59.958;17.726;2023-05-16T05:19:57;11.70;99.90
10431;DHT22;5262;59.958;17.726;2023-05-16T05:22:23;11.70;99.90
10431;DHT22;5262;59.958;17.726;2023-05-16T05:24:48;11.80;99.90
10431;DHT22;5262;59.958;17.726;2023-05-16T05:27:14;11.90;99.90
10431;DHT22;5262;59.958;17.726;2023-05-16T05:29:40;11.90;99.90
10431;DHT22;5262;59.958;17.726;2023-05-16T05:32:06;12.00;99.90
10431;DHT22;5262;59.958;17.726;2023-05-16T05:34:32;12.00;99.90
10431;DHT22;5262;59.958;17.726;2023-05-16T05:36:58;12.00;99.90
10431;DHT22;5262;59.958;17.726;2023-05-16T05:39:24;12.10;99.90
10431;DHT22;5262;59.958;17.726;2023-05-16T05:41:50;12.10;99.90
10431;DHT22;5262;59.958;17.726;2023-05-16T05:44:16;12.20;99.90
10431;DHT22;5262;59.958;17.726;2023-05-16T05:46:41;12.20;99.90
10431;DHT22;5262;59.958;17.726;2023-05-16T05:49:07;12.20;99.90
10431;DHT22;5262;59.958;17.726;2023-05-16T05:51:33;12.20;99.90
10431;DHT22;5262;59.958;17.726;2023-05-16T05:54:01;12.20;99.90
10431;DHT22;5262;59.958;17.726;2023-05-16T05:56:26;12.30;99.90
10431;DHT22;5262;59.958;17.726;2023-05-16T05:58:52;12.20;99.90
10431;DHT22;5262;59.958;17.726;2023-05-16T06:01:18;12.30;99.90
10431;DHT22;5262;59.958;17.726;2023-05-16T06:03:46;12.40;99.90
10431;DHT22;5262;59.958;17.726;2023-05-16T06:06:11;12.50;99.90
10431;DHT22;5262;59.958;17.726;2023-05-16T06:08:37;12.50;99.90
10431;DHT22;5262;59.958;17.726;2023-05-16T06:11:03;12.60;99.90
10431;DHT22;5262;59.958;17.726;2023-05-16T06:13:28;12.60;99.90
10431;DHT22;5262;59.958;17.726;2023-05-16T06:15:54;12.60;99.90
10431;DHT22;5262;59.958;17.726;2023-05-16T06:18:20;12.50;99.90
10431;DHT22;5262;59.958;17.726;2023-05-16T06:20:46;12.50;99.90
10431;DHT22;5262;59.958;17.726;2023-05-16T06:23:11;12.50;99.90
10431;DHT22;5262;59.958;17.726;2023-05-16T06:25:37;12.50;99.90
10431;DHT22;5262;59.958;17.726;2023-05-16T06:28:03;12.40;99.90
10431;DHT22;5262;59.958;17.726;2023-05-16T06:30:28;12.40;99.90
10431;DHT22;5262;59.958;17.726;2023-05-16T06:32:54;12.20;99.90
10431;DHT22;5262;59.958;17.726;2023-05-16T06:35:20;12.30;99.90
10431;DHT22;5262;59.958;17.726;2023-05-16T06:37:45;12.30;99.90
10431;DHT22;5262;59.958;17.726;2023-05-16T06:40:11;12.20;99.90
10431;DHT22;5262;59.958;17.726;2023-05-16T06:42:37;12.20;99.90
10431;DHT22;5262;59.958;17.726;2023-05-16T06:45:03;12.20;99.90
10431;DHT22;5262;59.958;17.726;2023-05-16T06:47:29;12.00;99.90
10431;DHT22;5262;59.958;17.726;2023-05-16T06:49:54;11.90;99.90
10431;DHT22;5262;59.958;17.726;2023-05-16T06:52:21;11.90;99.90
10431;DHT22;5262;59.958;17.726;2023-05-16T06:54:46;12.00;99.90
10431;DHT22;5262;59.958;17.726;2023-05-16T06:57:12;11.90;99.90
10431;DHT22;5262;59.958;17.726;2023-05-16T06:59:38;11.70;99.90
10431;DHT22;5262;59.958;17.726;2023-05-16T07:02:04;11.70;99.90
10431;DHT22;5262;59.958;17.726;2023-05-16T07:04:30;11.70;99.90
10431;DHT22;5262;59.958;17.726;2023-05-16T07:06:56;11.60;99.90
10431;DHT22;5262;59.958;17.726;2023-05-16T07:09:22;11.70;99.90
10431;DHT22;5262;59.958;17.726;2023-05-16T07:11:47;11.70;99.90
10431;DHT22;5262;59.958;17.726;2023-05-16T07:14:13;11.60;99.90
10431;DHT22;5262;59.958;17.726;2023-05-16T07:16:38;11.70;99.90
10431;DHT22;5262;59.958;17.726;2023-05-16T07:19:04;11.70;99.90
10431;DHT22;5262;59.958;17.726;2023-05-16T07:21:30;11.70;99.90
10431;DHT22;5262;59.958;17.726;2023-05-16T07:23:56;11.80;99.90
10431;DHT22;5262;59.958;17.726;2023-05-16T07:26:22;11.90;99.90
10431;DHT22;5262;59.958;17.726;2023-05-16T07:28:51;11.90;99.90
10431;DHT22;5262;59.958;17.726;2023-05-16T07:31:17;12.10;99.90
10431;DHT22;5262;59.958;17.726;2023-05-16T07:33:43;12.00;99.90
10431;DHT22;5262;59.958;17.726;2023-05-16T07:36:11;12.10;99.90
10431;DHT22;5262;59.958;17.726;2023-05-16T07:38:37;12.10;99.90
10431;DHT22;5262;59.958;17.726;2023-05-16T07:41:03;12.00;99.90
10431;DHT22;5262;59.958;17.726;2023-05-16T07:43:29;12.10;99.90
10431;DHT22;5262;59.958;17.726;2023-05-16T07:45:54;12.00;99.90
10431;DHT22;5262;59.958;17.726;2023-05-16T07:48:20;11.90;99.90
10431;DHT22;5262;59.958;17.726;2023-05-16T07:50:46;12.00;99.90
10431;DHT22;5262;59.958;17.726;2023-05-16T07:53:12;11.90;99.90
10431;DHT22;5262;59.958;17.726;2023-05-16T07:55:37;12.00;99.90
10431;DHT22;5262;59.958;17.726;2023-05-16T07:58:03;12.00;99.90
10431;DHT22;5262;59.958;17.726;2023-05-16T08:00:29;12.00;99.90
10431;DHT22;5262;59.958;17.726;2023-05-16T08:02:55;12.00;99.90
10431;DHT22;5262;59.958;17.726;2023-05-16T08:05:22;11.90;99.90
10431;DHT22;5262;59.958;17.726;2023-05-16T08:07:48;12.00;99.90
10431;DHT22;5262;59.958;17.726;2023-05-16T08:10:14;11.90;99.90
10431;DHT22;5262;59.958;17.726;2023-05-16T08:12:40;11.80;99.90
10431;DHT22;5262;59.958;17.726;2023-05-16T08:15:06;11.80;99.90
10431;DHT22;5262;59.958;17.726;2023-05-16T08:17:32;12.00;99.90
10431;DHT22;5262;59.958;17.726;2023-05-16T08:19:57;11.90;99.90
10431;DHT22;5262;59.958;17.726;2023-05-16T08:22:26;11.80;99.90
10431;DHT22;5262;59.958;17.726;2023-05-16T08:24:51;11.90;99.90
10431;DHT22;5262;59.958;17.726;2023-05-16T08:27:17;11.90;99.90
10431;DHT22;5262;59.958;17.726;2023-05-16T08:29:43;11.90;99.90
10431;DHT22;5262;59.958;17.726;2023-05-16T08:32:08;12.00;99.90
10431;DHT22;5262;59.958;17.726;2023-05-16T08:34:35;11.90;99.90
10431;DHT22;5262;59.958;17.726;2023-05-16T08:37:01;12.10;99.90
10431;DHT22;5262;59.958;17.726;2023-05-16T08:39:27;12.10;99.90
10431;DHT22;5262;59.958;17.726;2023-05-16T08:41:54;12.30;99.90
10431;DHT22;5262;59.958;17.726;2023-05-16T08:44:20;12.30;99.90
10431;DHT22;5262;59.958;17.726;2023-05-16T08:46:50;12.30;99.90
10431;DHT22;5262;59.958;17.726;2023-05-16T08:49:17;12.30;99.90
10431;DHT22;5262;59.958;17.726;2023-05-16T08:51:45;12.30;99.90
10431;DHT22;5262;59.958;17.726;2023-05-16T08:54:13;12.30;99.90
10431;DHT22;5262;59.958;17.726;2023-05-16T08:56:41;12.40;99.90
10431;DHT22;5262;59.958;17.726;2023-05-16T08:59:06;12.30;99.90
10431;DHT22;5262;59.958;17.726;2023-05-16T09:01:32;12.60;99.90
10431;DHT22;5262;59.958;17.726;2023-05-16T09:03:59;12.70;99.90
10431;DHT22;5262;59.958;17.726;2023-05-16T09:06:26;12.70;99.90
10431;DHT22;5262;59.958;17.726;2023-05-16T09:08:53;12.80;99.90
10431;DHT22;5262;59.958;17.726;2023-05-16T09:11:18;12.70;99.90
10431;DHT22;5262;59.958;17.726;2023-05-16T09:13:44;12.80;99.90
10431;DHT22;5262;59.958;17.726;2023-05-16T09:18:38;12.90;99.90
10431;DHT22;5262;59.958;17.726;2023-05-16T09:21:05;12.90;99.90
10431;DHT22;5262;59.958;17.726;2023-05-16T09:23:32;12.90;99.90
10431;DHT22;5262;59.958;17.726;2023-05-16T09:25:58;12.90;99.90
10431;DHT22;5262;59.958;17.726;2023-05-16T09:28:27;13.00;99.90
10431;DHT22;5262;59.958;17.726;2023-05-16T09:30:53;13.10;99.90
10431;DHT22;5262;59.958;17.726;2023-05-16T09:33:23;13.20;99.90
10431;DHT22;5262;59.958;17.726;2023-05-16T09:35:59;13.40;99.90
10431;DHT22;5262;59.958;17.726;2023-05-16T09:38:26;13.40;99.90
10431;DHT22;5262;59.958;17.726;2023-05-16T09:40:53;13.60;99.90
10431;DHT22;5262;59.958;17.726;2023-05-16T09:43:24;13.60;99.90
10431;DHT22;5262;59.958;17.726;2023-05-16T09:45:51;13.70;99.90
10431;DHT22;5262;59.958;17.726;2023-05-16T09:48:17;13.70;99.90
10431;DHT22;5262;59.958;17.726;2023-05-16T09:50:51;13.60;99.90
10431;DHT22;5262;59.958;17.726;2023-05-16T09:53:24;13.60;99.90
10431;DHT22;5262;59.958;17.726;2023-05-16T09:55:59;13.50;99.90
10431;DHT22;5262;59.958;17.726;2023-05-16T09:58:30;13.40;99.90
10431;DHT22;5262;59.958;17.726;2023-05-16T10:00:57;13.50;99.90
10431;DHT22;5262;59.958;17.726;2023-05-16T10:03:24;13.70;99.90
10431;DHT22;5262;59.958;17.726;2023-05-16T10:05:52;13.70;99.90
10431;DHT22;5262;59.958;17.726;2023-05-16T10:08:23;13.70;99.90
10431;DHT22;5262;59.958;17.726;2023-05-16T10:10:51;13.90;99.90
10431;DHT22;5262;59.958;17.726;2023-05-16T10:13:28;14.10;99.90
10431;DHT22;5262;59.958;17.726;2023-05-16T10:15:55;14.40;99.90
10431;DHT22;5262;59.958;17.726;2023-05-16T10:18:23;14.20;99.90
10431;DHT22;5262;59.958;17.726;2023-05-16T10:20:52;14.10;99.90
10431;DHT22;5262;59.958;17.726;2023-05-16T10:23:20;14.00;99.90
10431;DHT22;5262;59.958;17.726;2023-05-16T10:25:48;14.00;99.90
10431;DHT22;5262;59.958;17.726;2023-05-16T10:28:14;14.30;99.90
10431;DHT22;5262;59.958;17.726;2023-05-16T10:30:43;14.50;99.90
10431;DHT22;5262;59.958;17.726;2023-05-16T10:33:14;14.60;99.90
10431;DHT22;5262;59.958;17.726;2023-05-16T10:35:40;14.60;99.90
10431;DHT22;5262;59.958;17.726;2023-05-16T10:38:07;14.40;99.90
10431;DHT22;5262;59.958;17.726;2023-05-16T10:40:38;14.50;99.90
10431;DHT22;5262;59.958;17.726;2023-05-16T10:43:05;14.50;99.90
10431;DHT22;5262;59.958;17.726;2023-05-16T10:45:31;14.80;99.90
10431;DHT22;5262;59.958;17.726;2023-05-16T10:48:01;14.80;99.90
10431;DHT22;5262;59.958;17.726;2023-05-16T10:50:38;14.80;99.90
10431;DHT22;5262;59.958;17.726;2023-05-16T10:53:34;14.80;99.90
10431;DHT22;5262;59.958;17.726;2023-05-16T11:06:25;14.20;99.90
10431;DHT22;5262;59.958;17.726;2023-05-16T11:14:07;14.30;99.90
10431;DHT22;5262;59.958;17.726;2023-05-16T11:16:34;14.30;99.90
10431;DHT22;5262;59.958;17.726;2023-05-16T11:19:07;14.30;99.90
10431;DHT22;5262;59.958;17.726;2023-05-16T11:24:30;14.30;99.90
10431;DHT22;5262;59.958;17.726;2023-05-16T11:27:00;14.20;99.90
10431;DHT22;5262;59.958;17.726;2023-05-16T11:29:34;14.40;99.90
10431;DHT22;5262;59.958;17.726;2023-05-16T11:32:03;14.60;99.90
10431;DHT22;5262;59.958;17.726;2023-05-16T11:34:31;14.60;99.90
10431;DHT22;5262;59.958;17.726;2023-05-16T11:37:00;14.50;99.90
10431;DHT22;5262;59.958;17.726;2023-05-16T11:39:28;14.60;99.90
10431;DHT22;5262;59.958;17.726;2023-05-16T11:41:55;14.40;99.90
10431;DHT22;5262;59.958;17.726;2023-05-16T11:44:20;14.40;99.90
10431;DHT22;5262;59.958;17.726;2023-05-16T11:46:46;14.30;99.90
10431;DHT22;5262;59.958;17.726;2023-05-16T11:49:12;14.30;99.90
10431;DHT22;5262;59.958;17.726;2023-05-16T11:51:38;14.20;99.90
10431;DHT22;5262;59.958;17.726;2023-05-16T11:54:05;14.30;99.90
10431;DHT22;5262;59.958;17.726;2023-05-16T11:56:33;14.10;99.90
10431;DHT22;5262;59.958;17.726;2023-05-16T11:59:00;14.20;99.90
10431;DHT22;5262;59.958;17.726;2023-05-16T12:01:32;14.10;99.90
10431;DHT22;5262;59.958;17.726;2023-05-16T12:03:58;14.10;99.90
10431;DHT22;5262;59.958;17.726;2023-05-16T12:06:23;14.20;99.90
10431;DHT22;5262;59.958;17.726;2023-05-16T12:08:51;13.90;99.90
10431;DHT22;5262;59.958;17.726;2023-05-16T12:11:17;13.80;99.90
10431;DHT22;5262;59.958;17.726;2023-05-16T12:13:42;13.70;99.90
10431;DHT22;5262;59.958;17.726;2023-05-16T12:16:10;13.60;99.90
10431;DHT22;5262;59.958;17.726;2023-05-16T12:18:37;13.60;99.90
10431;DHT22;5262;59.958;17.726;2023-05-16T12:21:04;13.70;99.90
10431;DHT22;5262;59.958;17.726;2023-05-16T12:23:32;13.70;99.90
10431;DHT22;5262;59.958;17.726;2023-05-16T12:25:58;13.70;99.90
10431;DHT22;5262;59.958;17.726;2023-05-16T12:28:31;13.60;99.90
10431;DHT22;5262;59.958;17.726;2023-05-16T12:31:02;13.60;99.90
10431;DHT22;5262;59.958;17.726;2023-05-16T12:33:28;13.60;99.90
10431;DHT22;5262;59.958;17.726;2023-05-16T12:35:53;13.70;99.90
10431;DHT22;5262;59.958;17.726;2023-05-16T12:38:19;13.70;99.90
10431;DHT22;5262;59.958;17.726;2023-05-16T12:40:46;13.70;99.90
10431;DHT22;5262;59.958;17.726;2023-05-16T12:43:16;13.80;99.90
10431;DHT22;5262;59.958;17.726;2023-05-16T12:45:54;13.80;99.90
10431;DHT22;5262;59.958;17.726;2023-05-16T12:48:20;13.60;99.90
10431;DHT22;5262;59.958;17.726;2023-05-16T12:50:46;13.60;99.90
10431;DHT22;5262;59.958;17.726;2023-05-16T12:53:14;13.50;99.90
10431;DHT22;5262;59.958;17.726;2023-05-16T12:55:41;13.50;99.90
10431;DHT22;5262;59.958;17.726;2023-05-16T12:58:08;13.50;99.90
10431;DHT22;5262;59.958;17.726;2023-05-16T13:00:35;13.40;99.90
10431;DHT22;5262;59.958;17.726;2023-05-16T13:03:02;13.40;99.90
10431;DHT22;5262;59.958;17.726;2023-05-16T13:05:28;13.30;99.90
10431;DHT22;5262;59.958;17.726;2023-05-16T13:07:54;13.20;99.90
10431;DHT22;5262;59.958;17.726;2023-05-16T13:10:20;13.30;99.90
10431;DHT22;5262;59.958;17.726;2023-05-16T13:12:46;13.30;99.90
10431;DHT22;5262;59.958;17.726;2023-05-16T13:15:12;13.40;99.90
10431;DHT22;5262;59.958;17.726;2023-05-16T13:17:39;13.50;99.90
10431;DHT22;5262;59.958;17.726;2023-05-16T13:20:06;13.60;99.90
10431;DHT22;5262;59.958;17.726;2023-05-16T13:22:38;13.80;99.90
10431;DHT22;5262;59.958;17.726;2023-05-16T13:25:04;13.90;99.90
10431;DHT22;5262;59.958;17.726;2023-05-16T13:27:31;14.00;99.90
10431;DHT22;5262;59.958;17.726;2023-05-16T13:29:57;14.00;99.90
10431;DHT22;5262;59.958;17.726;2023-05-16T13:32:23;13.80;99.90
10431;DHT22;5262;59.958;17.726;2023-05-16T13:34:49;13.70;99.90
10431;DHT22;5262;59.958;17.726;2023-05-16T13:37:16;13.60;99.90
10431;DHT22;5262;59.958;17.726;2023-05-16T13:39:42;13.50;99.90
10431;DHT22;5262;59.958;17.726;2023-05-16T13:42:07;13.50;99.90
10431;DHT22;5262;59.958;17.726;2023-05-16T13:44:33;13.50;99.90
10431;DHT22;5262;59.958;17.726;2023-05-16T13:46:59;13.40;99.90
10431;DHT22;5262;59.958;17.726;2023-05-16T13:49:25;13.30;99.90
10431;DHT22;5262;59.958;17.726;2023-05-16T13:51:51;13.30;99.90
10431;DHT22;5262;59.958;17.726;2023-05-16T13:54:17;13.20;99.90
10431;DHT22;5262;59.958;17.726;2023-05-16T13:56:43;13.30;99.90
10431;DHT22;5262;59.958;17.726;2023-05-16T13:59:09;13.20;99.90
10431;DHT22;5262;59.958;17.726;2023-05-16T14:01:35;13.20;99.90
10431;DHT22;5262;59.958;17.726;2023-05-16T14:04:01;13.20;99.90
10431;DHT22;5262;59.958;17.726;2023-05-16T14:06:27;13.20;99.90
10431;DHT22;5262;59.958;17.726;2023-05-16T14:08:53;13.20;99.90
10431;DHT22;5262;59.958;17.726;2023-05-16T14:11:19;13.30;99.90
10431;DHT22;5262;59.958;17.726;2023-05-16T14:13:47;13.30;99.90
10431;DHT22;5262;59.958;17.726;2023-05-16T14:16:13;13.30;99.90
10431;DHT22;5262;59.958;17.726;2023-05-16T14:18:39;13.30;99.90
10431;DHT22;5262;59.958;17.726;2023-05-16T14:21:05;13.30;99.90
10431;DHT22;5262;59.958;17.726;2023-05-16T14:23:30;13.30;99.90
10431;DHT22;5262;59.958;17.726;2023-05-16T14:25:56;13.30;99.90
10431;DHT22;5262;59.958;17.726;2023-05-16T14:28:22;13.30;99.90
10431;DHT22;5262;59.958;17.726;2023-05-16T14:30:47;13.30;99.90
10431;DHT22;5262;59.958;17.726;2023-05-16T14:33:13;13.30;99.90
10431;DHT22;5262;59.958;17.726;2023-05-16T14:35:39;13.40;99.90
10431;DHT22;5262;59.958;17.726;2023-05-16T14:38:05;13.40;99.90
10431;DHT22;5262;59.958;17.726;2023-05-16T14:40:32;13.70;99.90
10431;DHT22;5262;59.958;17.726;2023-05-16T14:42:58;13.70;99.90
10431;DHT22;5262;59.958;17.726;2023-05-16T14:45:24;13.60;99.90
10431;DHT22;5262;59.958;17.726;2023-05-16T14:47:50;13.70;99.90
10431;DHT22;5262;59.958;17.726;2023-05-16T14:50:16;13.90;99.90
10431;DHT22;5262;59.958;17.726;2023-05-16T14:52:42;13.80;99.90
10431;DHT22;5262;59.958;17.726;2023-05-16T14:55:07;13.90;99.90
10431;DHT22;5262;59.958;17.726;2023-05-16T14:57:33;13.90;99.90
10431;DHT22;5262;59.958;17.726;2023-05-16T14:59:59;13.90;99.90
10431;DHT22;5262;59.958;17.726;2023-05-16T15:02:25;13.90;99.90
10431;DHT22;5262;59.958;17.726;2023-05-16T15:04:51;13.70;99.90
10431;DHT22;5262;59.958;17.726;2023-05-16T15:07:17;13.70;99.90
10431;DHT22;5262;59.958;17.726;2023-05-16T15:09:43;13.70;99.90
10431;DHT22;5262;59.958;17.726;2023-05-16T15:12:08;13.80;99.90
10431;DHT22;5262;59.958;17.726;2023-05-16T15:14:34;13.80;99.90
10431;DHT22;5262;59.958;17.726;2023-05-16T15:17:00;13.80;99.90
10431;DHT22;5262;59.958;17.726;2023-05-16T15:19:26;13.80;99.90
10431;DHT22;5262;59.958;17.726;2023-05-16T15:21:51;13.80;99.90
10431;DHT22;5262;59.958;17.726;2023-05-16T15:24:17;13.80;99.90
10431;DHT22;5262;59.958;17.726;2023-05-16T15:26:42;13.80;99.90
10431;DHT22;5262;59.958;17.726;2023-05-16T15:29:08;13.80;99.90
10431;DHT22;5262;59.958;17.726;2023-05-16T15:31:35;13.70;99.90
10431;DHT22;5262;59.958;17.726;2023-05-16T15:34:00;13.70;99.90
10431;DHT22;5262;59.958;17.726;2023-05-16T15:36:26;13.70;99.90
10431;DHT22;5262;59.958;17.726;2023-05-16T15:38:52;13.70;99.90
10431;DHT22;5262;59.958;17.726;2023-05-16T15:41:18;13.70;99.90
10431;DHT22;5262;59.958;17.726;2023-05-16T15:43:44;13.70;99.90
10431;DHT22;5262;59.958;17.726;2023-05-16T15:46:10;13.70;99.90
10431;DHT22;5262;59.958;17.726;2023-05-16T15:48:36;13.60;99.90
10431;DHT22;5262;59.958;17.726;2023-05-16T15:51:02;13.60;99.90
10431;DHT22;5262;59.958;17.726;2023-05-16T15:53:28;13.60;99.90
10431;DHT22;5262;59.958;17.726;2023-05-16T15:55:54;13.50;99.90
10431;DHT22;5262;59.958;17.726;2023-05-16T15:58:20;13.50;99.90
10431;DHT22;5262;59.958;17.726;2023-05-16T16:00:47;13.50;99.90
10431;DHT22;5262;59.958;17.726;2023-05-16T16:03:12;13.40;99.90
10431;DHT22;5262;59.958;17.726;2023-05-16T16:05:38;13.40;99.90
10431;DHT22;5262;59.958;17.726;2023-05-16T16:08:04;13.40;99.90